Flight Track Log - Related Links

Times and Time Zones

All times are in EDT time to prevent confusion due to time zone crossing. See the XSR389 flight status page for this flight to view local times or setup timezone preferences in your user account.

Time Position Orientation Groundspeed Altitude Reporting Facility
EDT Latitude Longitude Course Direction KTS MPH feet Rate Location/Type
Tue 08:04:26 AM 36.0136 -95.9956 179° South 142 163 1,200  Level Kansas City Center
Tue 08:05:39 AM 35.9631 -95.9942 179° South 163 188 2,500 1,107 Climbing Kansas City Center
Tue 08:06:09 AM 35.9439 -95.9808 151° Southeast 153 176 3,100 1,055 Climbing Kansas City Center
Tue 08:07:10 AM 35.9042 -95.9644 162° South 150 173 4,100 992 Climbing Kansas City Center
Tue 08:08:10 AM 35.8647 -95.9444 158° South 151 174 5,100 1,041 Climbing Kansas City Center
Tue 08:09:11 AM 35.8244 -95.9261 160° South 153 176 6,200 1,008 Climbing Kansas City Center
Tue 08:10:15 AM 35.7839 -95.9081 160° South 155 178 7,200 919 Climbing Kansas City Center
Tue 08:11:15 AM 35.7419 -95.8883 159° South 157 181 8,100 942 Climbing Kansas City Center
Tue 08:12:16 AM 35.7011 -95.8700 160° South 157 181 9,100 878 Climbing Kansas City Center
Tue 08:13:18 AM 35.6581 -95.8797 190° South 166 191 9,900 836 Climbing Kansas City Center
Tue 08:14:18 AM 35.6150 -95.8931 194° South 161 185 10,800 919 Climbing Kansas City Center
Tue 08:15:22 AM 35.5711 -95.9081 196° South 162 186 11,800 1,016 Climbing Kansas City Center
Tue 08:16:22 AM 35.5172 -95.9256 195° South 166 191 12,900 950 Climbing Kansas City Center
Tue 08:17:22 AM 35.4725 -95.9408 196° South 167 192 13,700 738 Climbing Kansas City Center
Tue 08:18:24 AM 35.4264 -95.9564 195° South 169 194 14,400 624 Climbing Kansas City Center
Tue 08:19:27 AM 35.3811 -95.9714 195° South 169 194 15,000 590 Climbing Kansas City Center
Tue 08:20:26 AM 35.3272 -95.9911 197° South 168 193 15,600 807 Climbing Fort Worth Center
Tue 08:21:26 AM 35.2817 -96.0047 194° South 168 193 16,600 950 Climbing Fort Worth Center
Tue 08:22:26 AM 35.2419 -96.0181 195° South 162 186 17,500 650 Climbing Fort Worth Center
Tue 08:23:26 AM 35.2025 -96.0314 195° South 162 186 17,900 350 Climbing Fort Worth Center
Tue 08:24:26 AM 35.1547 -96.0450 193° South 167 192 18,200 400 Climbing Fort Worth Center
Tue 08:25:26 AM 35.1111 -96.0608 197° South 167 192 18,700 500 Climbing Fort Worth Center
Tue 08:26:26 AM 35.0656 -96.0767 196° South 167 192 19,200 550 Climbing Fort Worth Center
Tue 08:27:26 AM 35.0197 -96.0903 194° South 167 192 19,800 450 Climbing Fort Worth Center
Tue 08:28:26 AM 34.9739 -96.1061 196° South 167 192 20,100 150 Climbing Fort Worth Center
Tue 08:29:26 AM 34.9219 -96.1219 194° South 178 205 20,100  Level Fort Worth Center
Tue 08:30:26 AM 34.8681 -96.1406 196° South 190 219 20,100  Level Fort Worth Center
Tue 08:31:26 AM 34.8139 -96.1592 196° South 201 231 20,100  Level Fort Worth Center
Tue 08:32:26 AM 34.7578 -96.1750 193° South 201 231 20,100  Level Fort Worth Center
Tue 08:33:26 AM 34.7017 -96.1936 195° South 201 231 20,100  Level Fort Worth Center
Tue 08:34:26 AM 34.6433 -96.2144 196° South 206 237 20,100  Level Fort Worth Center
Tue 08:35:26 AM 34.5872 -96.2306 193° South 206 237 20,100  Level Fort Worth Center
Tue 08:36:26 AM 34.5331 -96.2514 198° South 206 237 20,100  Level Fort Worth Center
Tue 08:37:26 AM 34.4769 -96.2697 195° South 201 231 20,100  Level Fort Worth Center
Tue 08:38:26 AM 34.4208 -96.2881 195° South 206 237 20,100  Level Fort Worth Center
Tue 08:39:26 AM 34.3647 -96.3042 193° South 206 237 20,100  Level Fort Worth Center
Tue 08:40:26 AM 34.3083 -96.3222 195° South 206 237 20,100  Level Fort Worth Center
Tue 08:41:26 AM 34.2522 -96.3431 197° South 201 231 20,100  Level Fort Worth Center
Tue 08:42:26 AM 34.1981 -96.3614 196° South 201 231 20,100  Level Fort Worth Center
Tue 08:43:26 AM 34.1442 -96.3797 196° South 201 231 20,100  Level Fort Worth Center
Tue 08:44:26 AM 34.1003 -96.4003 201° Southwest 206 237 20,100  Level Fort Worth Center
Tue 08:45:26 AM 34.0464 -96.4158 193° South 201 231 20,100  Level Fort Worth Center
Tue 08:46:26 AM 33.9942 -96.4364 198° South 201 231 20,100  Level Fort Worth Center
Tue 08:47:26 AM 33.9403 -96.4547 196° South 206 237 20,100  Level Fort Worth Center
Tue 08:48:26 AM 33.8839 -96.4753 197° South 206 237 20,100  Level Fort Worth Center
Tue 08:49:26 AM 33.8236 -96.4983 198° South 206 237 20,100  Level Fort Worth Center
Tue 08:50:26 AM 33.7778 -96.5139 196° South 206 237 20,100  Level Fort Worth Center
Tue 08:51:26 AM 33.7153 -96.5369 197° South 211 243 20,100  Level Fort Worth Center
Tue 08:52:26 AM 33.6653 -96.5550 197° South 211 243 20,100  Level Fort Worth Center
Tue 08:53:26 AM 33.6092 -96.5781 199° South 206 237 20,100  Level Fort Worth Center
Tue 08:54:26 AM 33.5550 -96.5958 195° South 206 237 20,100  Level Fort Worth Center
Tue 08:55:26 AM 33.5072 -96.6139 197° South 206 237 20,100  Level Fort Worth Center
Tue 08:56:26 AM 33.4489 -96.6367 198° South 206 237 20,100  Level Fort Worth Center
Tue 08:57:26 AM 33.4008 -96.6519 195° South 206 237 20,100  Level Fort Worth Center
Tue 08:58:26 AM 33.3428 -96.6750 198° South 206 237 20,100  Level Fort Worth Center
Tue 08:59:26 AM 33.2925 -96.6903 194° South 206 237 20,100  Level Fort Worth Center
Tue 09:00:26 AM 33.2364 -96.7131 199° South 206 237 20,100  Level Fort Worth Center
Tue 09:01:26 AM 33.1864 -96.7308 197° South 206 237 20,100  Level Fort Worth Center
Tue 09:02:26 AM 33.1281 -96.7536 198° South 206 237 20,100  Level Fort Worth Center
Tue 09:03:26 AM 33.0739 -96.7739 197° South 206 237 20,100  Level Fort Worth Center
Tue 09:04:26 AM 33.0219 -96.7917 196° South 206 237 20,100  Level Fort Worth Center
Tue 09:05:26 AM 32.9675 -96.8117 197° South 206 237 20,100  Level Fort Worth Center
Tue 09:06:26 AM 32.9133 -96.8319 197° South 206 237 20,100  Level Fort Worth Center
Tue 09:07:26 AM 32.8592 -96.8494 195° South 206 237 20,100  Level Fort Worth Center
Tue 09:08:26 AM 32.8050 -96.8697 197° South 206 237 20,100  Level Fort Worth Center
Tue 09:09:26 AM 32.7550 -96.8847 194° South 206 237 20,100  Level Fort Worth Center
Tue 09:10:26 AM 32.6944 -96.9050 196° South 206 237 20,100 -50 Level Fort Worth Center
Tue 09:11:26 AM 32.6444 -96.9225 196° South 206 237 20,000 -50 Descending Fort Worth Center
Tue 09:12:26 AM 32.5861 -96.9450 198° South 206 237 20,000  Level Fort Worth Center
Tue 09:13:26 AM 32.5361 -96.9625 196° South 206 237 20,000  Level Fort Worth Center
Tue 09:14:26 AM 32.4778 -96.9825 196° South 206 237 20,000  Level Fort Worth Center
Tue 09:15:26 AM 32.4278 -97.0022 198° South 206 237 20,000  Level Fort Worth Center
Tue 09:16:26 AM 32.3694 -97.0222 196° South 206 237 20,000  Level Fort Worth Center
Tue 09:17:26 AM 32.3214 -97.0372 195° South 206 237 20,000  Level Fort Worth Center
Tue 09:18:26 AM 32.2567 -97.0472 187° South 206 237 20,000  Level Fort Worth Center
Tue 09:19:26 AM 32.2003 -97.0575 189° South 206 237 20,000  Level Fort Worth Center
Tue 09:20:26 AM 32.1439 -97.0675 189° South 206 237 20,000  Level Fort Worth Center
Tue 09:21:26 AM 32.0875 -97.0750 186° South 206 237 20,000  Level Fort Worth Center
Tue 09:22:26 AM 32.0333 -97.0825 187° South 206 237 20,000  Level Fort Worth Center
Tue 09:23:26 AM 31.9769 -97.0925 189° South 201 231 20,000  Level Fort Worth Center
Tue 09:24:26 AM 31.9228 -97.1000 187° South 201 231 20,000  Level Fort Worth Center
Tue 09:25:26 AM 31.8686 -97.1075 187° South 201 231 20,000  Level Fort Worth Center
Tue 09:26:26 AM 31.8100 -97.1175 188° South 201 231 20,000  Level Fort Worth Center
Tue 09:26:59 AM 31.7819 -97.1219 188° South 205 236 20,000  Level Houston Center
Tue 09:28:01 AM 31.7236 -97.1308 187° South 207 238 20,000  Level Houston Center
Tue 09:29:03 AM 31.6658 -97.1383 186° South 206 237 20,000  Level Houston Center
Tue 09:30:05 AM 31.6083 -97.1492 189° South 207 238 20,000  Level Houston Center
Tue 09:31:07 AM 31.5511 -97.1575 187° South 206 237 20,000  Level Houston Center
Tue 09:32:09 AM 31.4942 -97.1756 195° South 209 241 20,000  Level Houston Center
Tue 09:33:11 AM 31.4272 -97.1967 195° South 210 242 20,000  Level Houston Center
Tue 09:34:13 AM 31.3703 -97.2158 196° South 210 242 20,000  Level Houston Center
Tue 09:35:15 AM 31.3139 -97.2339 195° South 210 242 20,000  Level Houston Center
Tue 09:36:17 AM 31.2567 -97.2525 196° South 210 242 20,000  Level Houston Center
Tue 09:37:19 AM 31.1992 -97.2706 195° South 211 243 20,000  Level Houston Center
Tue 09:38:21 AM 31.1425 -97.2894 196° South 211 243 20,000  Level Houston Center
Tue 09:39:23 AM 31.0850 -97.3078 195° South 213 245 20,000  Level Houston Center
Tue 09:40:25 AM 31.0192 -97.3303 196° South 211 243 20,000  Level Houston Center
Tue 09:41:28 AM 30.9606 -97.3483 195° South 218 251 20,000 48 Level Houston Center
Tue 09:42:29 AM 30.9036 -97.3656 195° South 212 244 20,100 98 Climbing Houston Center
Tue 09:43:31 AM 30.8469 -97.3831 195° South 210 242 20,200 48 Climbing Houston Center
Tue 09:44:33 AM 30.7903 -97.4008 195° South 209 241 20,200 -339 Level Houston Center
Tue 09:45:35 AM 30.7211 -97.4228 195° South 218 251 19,500 -1,065 Descending Houston Center
Tue 09:46:37 AM 30.6522 -97.4439 195° South 248 285 18,000 -1,403 Descending Houston Center
Tue 09:47:39 AM 30.5833 -97.4664 196° South 255 293 16,600 -1,452 Descending Houston Center
Tue 09:48:41 AM 30.5136 -97.4878 195° South 255 293 15,000 -1,366 Descending Houston Center
Tue 09:49:42 AM 30.4461 -97.5100 196° South 251 289 13,800 -1,122 Descending Houston Center
Tue 09:50:44 AM 30.3828 -97.5300 195° South 238 274 12,700 -1,210 Descending Houston Center
Tue 09:51:46 AM 30.3222 -97.5700 210° Southwest 248 285 11,300 -1,113 Descending Houston Center
Tue 09:52:48 AM 30.2656 -97.6086 210° Southwest 237 273 10,400 -774 Descending Houston Center
Tue 09:53:50 AM 30.2031 -97.6525 211° Southwest 225 259 9,700 -673 Descending Houston Center
Tue 09:54:26 AM 30.1725 -97.6722 209° Southwest 215 247 9,300 -635 Descending Houston Center
Tue 09:55:15 AM 30.1331 -97.6989 210° Southwest 208 239 8,800 -614 Descending Houston Center
Tue 09:55:54 AM 30.1011 -97.7217 212° Southwest 211 243 8,400 -416 Descending Houston Center
Tue 09:56:56 AM 30.0486 -97.7572 210° Southwest 204 235 8,100 -145 Descending Houston Center
Tue 09:57:58 AM 30.0131 -97.8064 230° Southwest 209 241 8,100  Level Houston Center
Tue 09:58:59 AM 29.9800 -97.8722 240° Southwest 222 255 8,100  Level Houston Center
Tue 10:00:01 AM 29.9447 -97.9322 236° Southwest 226 260 8,100  Level Houston Center
Tue 10:01:03 AM 29.9069 -97.9978 236° Southwest 228 262 8,100  Level Houston Center
Tue 10:02:05 AM 29.8725 -98.0583 237° Southwest 227 261 8,100 -484 Level Houston Center
Tue 10:03:07 AM 29.8364 -98.1206 236° Southwest 234 269 7,100 -968 Descending Houston Center
Tue 10:04:09 AM 29.7975 -98.1936 238° Southwest 246 283 6,100 -484 Descending Houston Center
Tue 10:05:11 AM 29.7847 -98.2661 259° West 230 265 6,100  Level Houston Center
Tue 10:06:13 AM 29.7686 -98.3400 256° West 222 255 6,100 -50 Level Houston Center
Tue 10:07:12 AM 29.7322 -98.3906 230° Southwest 201 231 6,000  Descending Houston Center
Tue 10:08:16 AM 29.6975 -98.4392 231° Southwest 197 227 6,100 -190 Climbing Houston Center
Tue 10:09:18 AM 29.6603 -98.4922 231° Southwest 198 228 5,600 -919 Descending Houston Center
Tue 10:10:20 AM 29.6897 -98.5519 300° West 239 275 4,200 -774 Descending Houston Center
Tue 10:11:22 AM 29.7431 -98.5981 323° Northwest 227 261 4,000 -52 Descending Houston Center
Tue 10:12:16 AM 29.7661 -98.6464 299° West 187 215 4,100 -52 Climbing Houston Center
Tue 10:13:17 AM 29.7406 -98.6878 235° Southwest 164 189 3,900 -344 Descending Houston Center
Tue 10:14:18 AM 29.7008 -98.6903 183° South 165 190 3,400 -393 Descending Houston Center
Tue 10:15:19 AM 29.6725 -98.6550 133° Southeast 146 168 3,100 -197 Descending Houston Center
Tue 10:16:20 AM 29.6458 -98.6172 129° Southeast 150 173 3,000 -49 Descending Houston Center
Tue 10:17:21 AM 29.6156 -98.5825 135° Southeast 146 168 3,000 -365 Level Houston Center
Tue 10:18:15 AM 29.5936 -98.5514 129° Southeast 144 166 2,300 -694 Descending Houston Center
Tue 10:19:22 AM 29.5675 -98.5186 132° Southeast 120 138 1,600 -625 Descending Houston Center
Tue 10:20:39 AM 29.5397 -98.4800 130° Southeast 116 133 800 -623 Descending Houston Center

Login

Don't have an account? Register now (free) for customized features, flight alerts, and more!